sensor_id;sensor_type;location;lat;lon;timestamp;temperature;humidity
8910;DHT22;4490;49.072;8.804;2024-02-04T00:00:24;9.30;99.90
8910;DHT22;4490;49.072;8.804;2024-02-04T00:02:49;9.30;99.90
8910;DHT22;4490;49.072;8.804;2024-02-04T00:05:15;9.30;99.90
8910;DHT22;4490;49.072;8.804;2024-02-04T00:07:41;9.30;99.90
8910;DHT22;4490;49.072;8.804;2024-02-04T00:10:07;9.30;99.90
8910;DHT22;4490;49.072;8.804;2024-02-04T00:12:32;9.30;99.90
8910;DHT22;4490;49.072;8.804;2024-02-04T00:14:58;9.30;99.90
8910;DHT22;4490;49.072;8.804;2024-02-04T00:17:23;9.30;99.90
8910;DHT22;4490;49.072;8.804;2024-02-04T00:19:55;9.30;99.90
8910;DHT22;4490;49.072;8.804;2024-02-04T00:22:21;9.40;99.90
8910;DHT22;4490;49.072;8.804;2024-02-04T00:24:47;9.40;99.90
8910;DHT22;4490;49.072;8.804;2024-02-04T00:27:13;9.40;99.90
8910;DHT22;4490;49.072;8.804;2024-02-04T00:29:38;9.40;99.90
8910;DHT22;4490;49.072;8.804;2024-02-04T00:32:04;9.40;99.90
8910;DHT22;4490;49.072;8.804;2024-02-04T00:34:30;9.40;99.90
8910;DHT22;4490;49.072;8.804;2024-02-04T00:36:55;9.40;99.90
8910;DHT22;4490;49.072;8.804;2024-02-04T00:39:21;9.40;99.90
8910;DHT22;4490;49.072;8.804;2024-02-04T00:41:46;9.40;99.90
8910;DHT22;4490;49.072;8.804;2024-02-04T00:44:12;9.40;99.90
8910;DHT22;4490;49.072;8.804;2024-02-04T00:46:38;9.50;99.90
8910;DHT22;4490;49.072;8.804;2024-02-04T00:49:03;9.50;99.90
8910;DHT22;4490;49.072;8.804;2024-02-04T00:51:29;9.60;99.90
8910;DHT22;4490;49.072;8.804;2024-02-04T00:53:54;9.50;99.90
8910;DHT22;4490;49.072;8.804;2024-02-04T00:56:20;9.60;99.90
8910;DHT22;4490;49.072;8.804;2024-02-04T00:58:46;9.60;99.90
8910;DHT22;4490;49.072;8.804;2024-02-04T01:01:11;9.60;99.90
8910;DHT22;4490;49.072;8.804;2024-02-04T01:03:37;9.60;99.90
8910;DHT22;4490;49.072;8.804;2024-02-04T01:06:03;9.60;99.90
8910;DHT22;4490;49.072;8.804;2024-02-04T01:08:29;9.60;99.90
8910;DHT22;4490;49.072;8.804;2024-02-04T01:10:54;9.70;99.90
8910;DHT22;4490;49.072;8.804;2024-02-04T01:13:20;9.70;99.90
8910;DHT22;4490;49.072;8.804;2024-02-04T01:15:45;9.70;99.90
8910;DHT22;4490;49.072;8.804;2024-02-04T01:18:11;9.70;99.90
8910;DHT22;4490;49.072;8.804;2024-02-04T01:20:37;9.70;99.90
8910;DHT22;4490;49.072;8.804;2024-02-04T01:23:02;9.70;99.90
8910;DHT22;4490;49.072;8.804;2024-02-04T01:25:28;9.70;99.90
8910;DHT22;4490;49.072;8.804;2024-02-04T01:27:54;9.70;99.90
8910;DHT22;4490;49.072;8.804;2024-02-04T01:30:19;9.70;99.90
8910;DHT22;4490;49.072;8.804;2024-02-04T01:32:45;9.70;99.90
8910;DHT22;4490;49.072;8.804;2024-02-04T01:35:11;9.80;99.90
8910;DHT22;4490;49.072;8.804;2024-02-04T01:37:37;9.80;99.90
8910;DHT22;4490;49.072;8.804;2024-02-04T01:40:03;9.80;99.90
8910;DHT22;4490;49.072;8.804;2024-02-04T01:42:31;9.80;99.90
8910;DHT22;4490;49.072;8.804;2024-02-04T01:44:56;9.80;99.90
8910;DHT22;4490;49.072;8.804;2024-02-04T01:47:22;9.70;99.90
8910;DHT22;4490;49.072;8.804;2024-02-04T01:49:48;9.80;99.90
8910;DHT22;4490;49.072;8.804;2024-02-04T01:52:14;9.70;99.90
8910;DHT22;4490;49.072;8.804;2024-02-04T01:54:42;9.80;99.90
8910;DHT22;4490;49.072;8.804;2024-02-04T01:57:10;9.80;99.90
8910;DHT22;4490;49.072;8.804;2024-02-04T01:59:38;9.80;99.90
8910;DHT22;4490;49.072;8.804;2024-02-04T02:02:04;9.80;99.90
8910;DHT22;4490;49.072;8.804;2024-02-04T02:04:30;9.70;99.90
8910;DHT22;4490;49.072;8.804;2024-02-04T02:06:56;9.70;99.90
8910;DHT22;4490;49.072;8.804;2024-02-04T02:09:22;9.70;99.90
8910;DHT22;4490;49.072;8.804;2024-02-04T02:14:22;9.60;99.90
8910;DHT22;4490;49.072;8.804;2024-02-04T02:16:49;9.60;99.90
8910;DHT22;4490;49.072;8.804;2024-02-04T02:25:07;9.60;99.90
8910;DHT22;4490;49.072;8.804;2024-02-04T02:27:33;9.50;99.90
8910;DHT22;4490;49.072;8.804;2024-02-04T02:29:59;9.50;99.90
8910;DHT22;4490;49.072;8.804;2024-02-04T02:32:25;9.50;99.90
8910;DHT22;4490;49.072;8.804;2024-02-04T02:34:51;9.60;99.90
8910;DHT22;4490;49.072;8.804;2024-02-04T02:40:12;9.50;99.90
8910;DHT22;4490;49.072;8.804;2024-02-04T02:42:42;9.50;99.90
8910;DHT22;4490;49.072;8.804;2024-02-04T02:45:09;9.50;99.90
8910;DHT22;4490;49.072;8.804;2024-02-04T02:47:37;9.50;99.90
8910;DHT22;4490;49.072;8.804;2024-02-04T02:50:05;9.50;99.90
8910;DHT22;4490;49.072;8.804;2024-02-04T02:52:31;9.50;99.90
8910;DHT22;4490;49.072;8.804;2024-02-04T02:54:57;9.50;99.90
8910;DHT22;4490;49.072;8.804;2024-02-04T02:57:22;9.50;99.90
8910;DHT22;4490;49.072;8.804;2024-02-04T02:59:48;9.50;99.90
8910;DHT22;4490;49.072;8.804;2024-02-04T03:02:13;9.50;99.90
8910;DHT22;4490;49.072;8.804;2024-02-04T03:04:39;9.50;99.90
8910;DHT22;4490;49.072;8.804;2024-02-04T03:07:05;9.50;99.90
8910;DHT22;4490;49.072;8.804;2024-02-04T03:09:32;9.50;99.90
8910;DHT22;4490;49.072;8.804;2024-02-04T03:11:58;9.50;99.90
8910;DHT22;4490;49.072;8.804;2024-02-04T03:14:24;9.50;99.90
8910;DHT22;4490;49.072;8.804;2024-02-04T03:16:49;9.50;99.90
8910;DHT22;4490;49.072;8.804;2024-02-04T03:19:15;9.50;99.90
8910;DHT22;4490;49.072;8.804;2024-02-04T03:21:40;9.50;99.90
8910;DHT22;4490;49.072;8.804;2024-02-04T03:24:06;9.50;99.90
8910;DHT22;4490;49.072;8.804;2024-02-04T03:26:31;9.50;99.90
8910;DHT22;4490;49.072;8.804;2024-02-04T03:28:57;9.50;99.90
8910;DHT22;4490;49.072;8.804;2024-02-04T03:31:24;9.60;99.90
8910;DHT22;4490;49.072;8.804;2024-02-04T03:33:49;9.60;99.90
8910;DHT22;4490;49.072;8.804;2024-02-04T03:36:23;9.60;99.90
8910;DHT22;4490;49.072;8.804;2024-02-04T03:38:52;9.60;99.90
8910;DHT22;4490;49.072;8.804;2024-02-04T03:41:18;9.50;99.90
8910;DHT22;4490;49.072;8.804;2024-02-04T03:43:44;9.50;99.90
8910;DHT22;4490;49.072;8.804;2024-02-04T03:46:19;9.50;99.90
8910;DHT22;4490;49.072;8.804;2024-02-04T03:48:44;9.50;99.90
8910;DHT22;4490;49.072;8.804;2024-02-04T03:51:17;9.50;99.90
8910;DHT22;4490;49.072;8.804;2024-02-04T03:53:43;9.50;99.90
8910;DHT22;4490;49.072;8.804;2024-02-04T03:56:09;9.50;99.90
8910;DHT22;4490;49.072;8.804;2024-02-04T03:58:35;9.60;99.90
8910;DHT22;4490;49.072;8.804;2024-02-04T04:01:00;9.60;99.90
8910;DHT22;4490;49.072;8.804;2024-02-04T04:03:26;9.60;99.90
8910;DHT22;4490;49.072;8.804;2024-02-04T04:05:53;9.60;99.90
8910;DHT22;4490;49.072;8.804;2024-02-04T04:08:19;9.60;99.90
8910;DHT22;4490;49.072;8.804;2024-02-04T04:10:45;9.60;99.90
8910;DHT22;4490;49.072;8.804;2024-02-04T04:13:11;9.60;99.90
8910;DHT22;4490;49.072;8.804;2024-02-04T04:15:37;9.60;99.90
8910;DHT22;4490;49.072;8.804;2024-02-04T04:18:03;9.60;99.90
8910;DHT22;4490;49.072;8.804;2024-02-04T04:20:28;9.70;99.90
8910;DHT22;4490;49.072;8.804;2024-02-04T04:22:54;9.70;99.90
8910;DHT22;4490;49.072;8.804;2024-02-04T04:25:19;9.70;99.90
8910;DHT22;4490;49.072;8.804;2024-02-04T04:27:45;9.70;99.90
8910;DHT22;4490;49.072;8.804;2024-02-04T04:30:11;9.70;99.90
8910;DHT22;4490;49.072;8.804;2024-02-04T04:32:36;9.60;99.90
8910;DHT22;4490;49.072;8.804;2024-02-04T04:35:02;9.70;99.90
8910;DHT22;4490;49.072;8.804;2024-02-04T04:37:28;9.70;99.90
8910;DHT22;4490;49.072;8.804;2024-02-04T04:39:54;9.70;99.90
8910;DHT22;4490;49.072;8.804;2024-02-04T04:42:19;9.70;99.90
8910;DHT22;4490;49.072;8.804;2024-02-04T04:44:45;9.70;99.90
8910;DHT22;4490;49.072;8.804;2024-02-04T04:47:11;9.70;99.90
8910;DHT22;4490;49.072;8.804;2024-02-04T04:49:36;9.70;99.90
8910;DHT22;4490;49.072;8.804;2024-02-04T04:52:02;9.70;99.90
8910;DHT22;4490;49.072;8.804;2024-02-04T04:54:28;9.60;99.90
8910;DHT22;4490;49.072;8.804;2024-02-04T04:56:53;9.60;99.90
8910;DHT22;4490;49.072;8.804;2024-02-04T04:59:19;9.70;99.90
8910;DHT22;4490;49.072;8.804;2024-02-04T05:01:48;9.60;99.90
8910;DHT22;4490;49.072;8.804;2024-02-04T05:04:15;9.60;99.90
8910;DHT22;4490;49.072;8.804;2024-02-04T05:06:41;9.60;99.90
8910;DHT22;4490;49.072;8.804;2024-02-04T05:09:06;9.60;99.90
8910;DHT22;4490;49.072;8.804;2024-02-04T05:11:32;9.60;99.90
8910;DHT22;4490;49.072;8.804;2024-02-04T05:13:58;9.60;99.90
8910;DHT22;4490;49.072;8.804;2024-02-04T05:16:23;9.60;99.90
8910;DHT22;4490;49.072;8.804;2024-02-04T05:18:49;9.60;99.90
8910;DHT22;4490;49.072;8.804;2024-02-04T05:21:15;9.60;99.90
8910;DHT22;4490;49.072;8.804;2024-02-04T05:23:41;9.60;99.90
8910;DHT22;4490;49.072;8.804;2024-02-04T05:26:07;9.60;99.90
8910;DHT22;4490;49.072;8.804;2024-02-04T05:28:33;9.70;99.90
8910;DHT22;4490;49.072;8.804;2024-02-04T05:30:58;9.60;99.90
8910;DHT22;4490;49.072;8.804;2024-02-04T05:33:24;9.60;99.90
8910;DHT22;4490;49.072;8.804;2024-02-04T05:35:49;9.60;99.90
8910;DHT22;4490;49.072;8.804;2024-02-04T05:38:16;9.60;99.90
8910;DHT22;4490;49.072;8.804;2024-02-04T05:40:42;9.60;99.90
8910;DHT22;4490;49.072;8.804;2024-02-04T05:43:08;9.60;99.90
8910;DHT22;4490;49.072;8.804;2024-02-04T05:45:38;9.50;99.90
8910;DHT22;4490;49.072;8.804;2024-02-04T05:48:07;9.50;99.90
8910;DHT22;4490;49.072;8.804;2024-02-04T05:50:32;9.50;99.90
8910;DHT22;4490;49.072;8.804;2024-02-04T05:52:58;9.50;99.90
8910;DHT22;4490;49.072;8.804;2024-02-04T05:55:24;9.50;99.90
8910;DHT22;4490;49.072;8.804;2024-02-04T05:57:49;9.50;99.90
8910;DHT22;4490;49.072;8.804;2024-02-04T06:00:15;9.50;99.90
8910;DHT22;4490;49.072;8.804;2024-02-04T06:02:41;9.50;99.90
8910;DHT22;4490;49.072;8.804;2024-02-04T06:05:13;9.50;99.90
8910;DHT22;4490;49.072;8.804;2024-02-04T06:07:39;9.50;99.90
8910;DHT22;4490;49.072;8.804;2024-02-04T06:10:08;9.50;99.90
8910;DHT22;4490;49.072;8.804;2024-02-04T06:12:34;9.40;99.90
8910;DHT22;4490;49.072;8.804;2024-02-04T06:15:00;9.40;99.90
8910;DHT22;4490;49.072;8.804;2024-02-04T06:17:26;9.50;99.90
8910;DHT22;4490;49.072;8.804;2024-02-04T06:19:51;9.40;99.90
8910;DHT22;4490;49.072;8.804;2024-02-04T06:22:17;9.40;99.90
8910;DHT22;4490;49.072;8.804;2024-02-04T06:24:42;9.40;99.90
8910;DHT22;4490;49.072;8.804;2024-02-04T06:27:08;9.40;99.90
8910;DHT22;4490;49.072;8.804;2024-02-04T06:29:34;9.40;99.90
8910;DHT22;4490;49.072;8.804;2024-02-04T06:31:59;9.40;99.90
8910;DHT22;4490;49.072;8.804;2024-02-04T06:34:25;9.30;99.90
8910;DHT22;4490;49.072;8.804;2024-02-04T06:36:51;9.30;99.90
8910;DHT22;4490;49.072;8.804;2024-02-04T06:39:16;9.40;99.90
8910;DHT22;4490;49.072;8.804;2024-02-04T06:41:42;9.40;99.90
8910;DHT22;4490;49.072;8.804;2024-02-04T06:44:08;9.40;99.90
8910;DHT22;4490;49.072;8.804;2024-02-04T06:46:33;9.40;99.90
8910;DHT22;4490;49.072;8.804;2024-02-04T06:48:59;9.40;99.90
8910;DHT22;4490;49.072;8.804;2024-02-04T06:51:25;9.40;99.90
8910;DHT22;4490;49.072;8.804;2024-02-04T06:53:51;9.30;99.90
8910;DHT22;4490;49.072;8.804;2024-02-04T06:56:16;9.40;99.90
8910;DHT22;4490;49.072;8.804;2024-02-04T06:58:42;9.40;99.90
8910;DHT22;4490;49.072;8.804;2024-02-04T07:01:09;9.30;99.90
8910;DHT22;4490;49.072;8.804;2024-02-04T07:03:34;9.30;99.90
8910;DHT22;4490;49.072;8.804;2024-02-04T07:06:00;9.40;99.90
8910;DHT22;4490;49.072;8.804;2024-02-04T07:08:26;9.40;99.90
8910;DHT22;4490;49.072;8.804;2024-02-04T07:10:52;9.40;99.90
8910;DHT22;4490;49.072;8.804;2024-02-04T07:13:18;9.40;99.90
8910;DHT22;4490;49.072;8.804;2024-02-04T07:15:44;9.40;99.90
8910;DHT22;4490;49.072;8.804;2024-02-04T07:18:10;9.40;99.90
8910;DHT22;4490;49.072;8.804;2024-02-04T07:20:36;9.40;99.90
8910;DHT22;4490;49.072;8.804;2024-02-04T07:23:01;9.40;99.90
8910;DHT22;4490;49.072;8.804;2024-02-04T07:25:27;9.40;99.90
8910;DHT22;4490;49.072;8.804;2024-02-04T07:27:54;9.40;99.90
8910;DHT22;4490;49.072;8.804;2024-02-04T07:30:20;9.40;99.90
8910;DHT22;4490;49.072;8.804;2024-02-04T07:32:46;9.40;99.90
8910;DHT22;4490;49.072;8.804;2024-02-04T07:35:12;9.40;99.90
8910;DHT22;4490;49.072;8.804;2024-02-04T07:37:37;9.40;99.90
8910;DHT22;4490;49.072;8.804;2024-02-04T07:40:04;9.50;99.90
8910;DHT22;4490;49.072;8.804;2024-02-04T07:42:32;9.50;99.90
8910;DHT22;4490;49.072;8.804;2024-02-04T07:44:58;9.50;99.90
8910;DHT22;4490;49.072;8.804;2024-02-04T07:47:24;9.50;99.90
8910;DHT22;4490;49.072;8.804;2024-02-04T07:49:49;9.50;99.90
8910;DHT22;4490;49.072;8.804;2024-02-04T07:52:16;9.50;99.90
8910;DHT22;4490;49.072;8.804;2024-02-04T07:54:41;9.50;99.90
8910;DHT22;4490;49.072;8.804;2024-02-04T07:57:08;9.50;99.90
8910;DHT22;4490;49.072;8.804;2024-02-04T07:59:34;9.50;99.90
8910;DHT22;4490;49.072;8.804;2024-02-04T08:02:00;9.60;99.90
8910;DHT22;4490;49.072;8.804;2024-02-04T08:04:26;9.60;99.90
8910;DHT22;4490;49.072;8.804;2024-02-04T08:06:52;9.60;99.90
8910;DHT22;4490;49.072;8.804;2024-02-04T08:09:18;9.50;99.90
8910;DHT22;4490;49.072;8.804;2024-02-04T08:11:44;9.60;99.90
8910;DHT22;4490;49.072;8.804;2024-02-04T08:14:09;9.60;99.90
8910;DHT22;4490;49.072;8.804;2024-02-04T08:16:35;9.60;99.90
8910;DHT22;4490;49.072;8.804;2024-02-04T08:19:00;9.70;99.90
8910;DHT22;4490;49.072;8.804;2024-02-04T08:21:26;9.70;99.90
8910;DHT22;4490;49.072;8.804;2024-02-04T08:23:52;9.60;99.90
8910;DHT22;4490;49.072;8.804;2024-02-04T08:26:17;9.60;99.90
8910;DHT22;4490;49.072;8.804;2024-02-04T08:28:43;9.60;99.90
8910;DHT22;4490;49.072;8.804;2024-02-04T08:31:09;9.60;99.90
8910;DHT22;4490;49.072;8.804;2024-02-04T08:33:35;9.70;99.90
8910;DHT22;4490;49.072;8.804;2024-02-04T08:36:00;9.70;99.90
8910;DHT22;4490;49.072;8.804;2024-02-04T08:38:26;9.70;99.90
8910;DHT22;4490;49.072;8.804;2024-02-04T08:40:51;9.70;99.90
8910;DHT22;4490;49.072;8.804;2024-02-04T08:43:17;9.70;99.90
8910;DHT22;4490;49.072;8.804;2024-02-04T08:45:42;9.70;99.90
8910;DHT22;4490;49.072;8.804;2024-02-04T08:48:08;9.70;99.90
8910;DHT22;4490;49.072;8.804;2024-02-04T08:50:33;9.70;99.90
8910;DHT22;4490;49.072;8.804;2024-02-04T08:52:59;9.80;99.90
8910;DHT22;4490;49.072;8.804;2024-02-04T08:55:25;9.80;99.90
8910;DHT22;4490;49.072;8.804;2024-02-04T08:57:50;9.80;99.90
8910;DHT22;4490;49.072;8.804;2024-02-04T09:00:16;9.80;99.90
8910;DHT22;4490;49.072;8.804;2024-02-04T09:02:42;9.80;99.90
8910;DHT22;4490;49.072;8.804;2024-02-04T09:05:08;9.90;99.90
8910;DHT22;4490;49.072;8.804;2024-02-04T09:07:33;9.80;99.90
8910;DHT22;4490;49.072;8.804;2024-02-04T09:09:59;9.90;99.90
8910;DHT22;4490;49.072;8.804;2024-02-04T09:12:25;9.90;99.90
8910;DHT22;4490;49.072;8.804;2024-02-04T09:14:50;9.90;99.90
8910;DHT22;4490;49.072;8.804;2024-02-04T09:17:16;9.90;99.90
8910;DHT22;4490;49.072;8.804;2024-02-04T09:19:41;9.90;99.90
8910;DHT22;4490;49.072;8.804;2024-02-04T09:22:07;10.00;99.90
8910;DHT22;4490;49.072;8.804;2024-02-04T09:24:33;10.00;99.90
8910;DHT22;4490;49.072;8.804;2024-02-04T09:26:58;10.00;99.90
8910;DHT22;4490;49.072;8.804;2024-02-04T09:29:24;10.00;99.90
8910;DHT22;4490;49.072;8.804;2024-02-04T09:31:50;10.10;99.90
8910;DHT22;4490;49.072;8.804;2024-02-04T09:34:17;10.00;99.90
8910;DHT22;4490;49.072;8.804;2024-02-04T09:36:43;10.10;99.90
8910;DHT22;4490;49.072;8.804;2024-02-04T09:39:09;10.10;99.90
8910;DHT22;4490;49.072;8.804;2024-02-04T09:41:34;10.10;99.90
8910;DHT22;4490;49.072;8.804;2024-02-04T09:44:00;10.10;99.90
8910;DHT22;4490;49.072;8.804;2024-02-04T09:46:28;10.20;99.90
8910;DHT22;4490;49.072;8.804;2024-02-04T09:48:55;10.20;99.90
8910;DHT22;4490;49.072;8.804;2024-02-04T09:51:21;10.20;99.90
8910;DHT22;4490;49.072;8.804;2024-02-04T09:53:52;10.20;99.90
8910;DHT22;4490;49.072;8.804;2024-02-04T09:56:18;10.20;99.70
8910;DHT22;4490;49.072;8.804;2024-02-04T09:58:47;10.20;99.50
8910;DHT22;4490;49.072;8.804;2024-02-04T10:01:13;10.20;99.50
8910;DHT22;4490;49.072;8.804;2024-02-04T10:03:41;10.20;99.50
8910;DHT22;4490;49.072;8.804;2024-02-04T10:06:07;10.30;99.70
8910;DHT22;4490;49.072;8.804;2024-02-04T10:08:33;10.30;99.10
8910;DHT22;4490;49.072;8.804;2024-02-04T10:11:00;10.30;98.90
8910;DHT22;4490;49.072;8.804;2024-02-04T10:13:26;10.30;98.70
8910;DHT22;4490;49.072;8.804;2024-02-04T10:15:52;10.30;98.70
8910;DHT22;4490;49.072;8.804;2024-02-04T10:18:17;10.30;99.00
8910;DHT22;4490;49.072;8.804;2024-02-04T10:20:43;10.30;98.70
8910;DHT22;4490;49.072;8.804;2024-02-04T10:23:09;10.40;98.40
8910;DHT22;4490;49.072;8.804;2024-02-04T10:25:35;10.40;98.40
8910;DHT22;4490;49.072;8.804;2024-02-04T10:28:01;10.30;98.40
8910;DHT22;4490;49.072;8.804;2024-02-04T10:30:27;10.40;98.60
8910;DHT22;4490;49.072;8.804;2024-02-04T10:32:53;10.40;98.40
8910;DHT22;4490;49.072;8.804;2024-02-04T10:35:25;10.40;98.30
8910;DHT22;4490;49.072;8.804;2024-02-04T10:37:51;10.40;98.20
8910;DHT22;4490;49.072;8.804;2024-02-04T10:40:17;10.40;98.20
8910;DHT22;4490;49.072;8.804;2024-02-04T10:42:44;10.50;98.50
8910;DHT22;4490;49.072;8.804;2024-02-04T10:45:10;10.50;98.40
8910;DHT22;4490;49.072;8.804;2024-02-04T10:47:40;10.50;98.30
8910;DHT22;4490;49.072;8.804;2024-02-04T10:50:07;10.50;98.20
8910;DHT22;4490;49.072;8.804;2024-02-04T10:52:40;10.50;98.40
8910;DHT22;4490;49.072;8.804;2024-02-04T10:55:08;10.60;97.80
8910;DHT22;4490;49.072;8.804;2024-02-04T10:57:38;10.60;97.80
8910;DHT22;4490;49.072;8.804;2024-02-04T11:00:05;10.50;98.10
8910;DHT22;4490;49.072;8.804;2024-02-04T11:02:35;10.50;98.00
8910;DHT22;4490;49.072;8.804;2024-02-04T11:05:03;10.50;98.30
8910;DHT22;4490;49.072;8.804;2024-02-04T11:07:33;10.50;98.50
8910;DHT22;4490;49.072;8.804;2024-02-04T11:10:00;10.60;98.20
8910;DHT22;4490;49.072;8.804;2024-02-04T11:12:28;10.50;98.20
8910;DHT22;4490;49.072;8.804;2024-02-04T11:14:56;10.60;98.40
8910;DHT22;4490;49.072;8.804;2024-02-04T11:18:06;10.60;98.40
8910;DHT22;4490;49.072;8.804;2024-02-04T11:24:11;10.60;97.80
8910;DHT22;4490;49.072;8.804;2024-02-04T11:26:41;10.70;97.60
8910;DHT22;4490;49.072;8.804;2024-02-04T11:29:09;10.70;98.10
8910;DHT22;4490;49.072;8.804;2024-02-04T11:31:38;10.70;97.80
8910;DHT22;4490;49.072;8.804;2024-02-04T11:34:04;10.80;97.80
8910;DHT22;4490;49.072;8.804;2024-02-04T11:36:38;10.80;97.60
8910;DHT22;4490;49.072;8.804;2024-02-04T11:39:14;11.00;97.60
8910;DHT22;4490;49.072;8.804;2024-02-04T11:41:50;11.00;96.60
8910;DHT22;4490;49.072;8.804;2024-02-04T11:44:26;11.10;95.80
8910;DHT22;4490;49.072;8.804;2024-02-04T11:46:52;11.00;95.80
8910;DHT22;4490;49.072;8.804;2024-02-04T11:49:24;10.90;95.50
8910;DHT22;4490;49.072;8.804;2024-02-04T11:51:51;10.80;95.60
8910;DHT22;4490;49.072;8.804;2024-02-04T11:54:17;10.80;96.00
8910;DHT22;4490;49.072;8.804;2024-02-04T11:56:50;10.80;96.00
8910;DHT22;4490;49.072;8.804;2024-02-04T11:59:21;10.90;96.00
8910;DHT22;4490;49.072;8.804;2024-02-04T12:01:48;10.70;95.80
8910;DHT22;4490;49.072;8.804;2024-02-04T12:04:15;10.70;96.00
8910;DHT22;4490;49.072;8.804;2024-02-04T12:06:41;10.60;96.10
8910;DHT22;4490;49.072;8.804;2024-02-04T12:09:08;10.50;96.30
8910;DHT22;4490;49.072;8.804;2024-02-04T12:11:37;10.60;96.40
8910;DHT22;4490;49.072;8.804;2024-02-04T12:14:07;10.50;96.50
8910;DHT22;4490;49.072;8.804;2024-02-04T12:16:33;10.50;96.70
8910;DHT22;4490;49.072;8.804;2024-02-04T12:19:02;10.50;96.90
8910;DHT22;4490;49.072;8.804;2024-02-04T12:21:32;10.50;97.00
8910;DHT22;4490;49.072;8.804;2024-02-04T12:23:58;10.50;97.30
8910;DHT22;4490;49.072;8.804;2024-02-04T12:26:24;10.50;97.30
8910;DHT22;4490;49.072;8.804;2024-02-04T12:28:50;10.50;97.40
8910;DHT22;4490;49.072;8.804;2024-02-04T12:31:20;10.50;97.70
8910;DHT22;4490;49.072;8.804;2024-02-04T12:34:00;10.50;97.80
8910;DHT22;4490;49.072;8.804;2024-02-04T12:36:32;10.50;97.70
8910;DHT22;4490;49.072;8.804;2024-02-04T12:38:59;10.50;97.90
8910;DHT22;4490;49.072;8.804;2024-02-04T12:41:26;10.50;98.00
8910;DHT22;4490;49.072;8.804;2024-02-04T12:43:54;10.50;98.20
8910;DHT22;4490;49.072;8.804;2024-02-04T12:46:21;10.50;98.30
8910;DHT22;4490;49.072;8.804;2024-02-04T12:48:56;10.50;98.10
8910;DHT22;4490;49.072;8.804;2024-02-04T12:51:29;10.40;98.20
8910;DHT22;4490;49.072;8.804;2024-02-04T12:54:09;10.40;98.60
8910;DHT22;4490;49.072;8.804;2024-02-04T12:56:49;10.40;98.80
8910;DHT22;4490;49.072;8.804;2024-02-04T12:59:31;10.50;99.00
8910;DHT22;4490;49.072;8.804;2024-02-04T13:02:02;10.40;99.10
8910;DHT22;4490;49.072;8.804;2024-02-04T13:04:48;10.50;99.30
8910;DHT22;4490;49.072;8.804;2024-02-04T13:07:14;10.50;99.60
8910;DHT22;4490;49.072;8.804;2024-02-04T13:09:42;10.40;99.80
8910;DHT22;4490;49.072;8.804;2024-02-04T13:12:09;10.40;99.90
8910;DHT22;4490;49.072;8.804;2024-02-04T13:14:38;10.50;99.90
8910;DHT22;4490;49.072;8.804;2024-02-04T13:17:05;10.40;99.90
8910;DHT22;4490;49.072;8.804;2024-02-04T13:19:34;10.40;99.90
8910;DHT22;4490;49.072;8.804;2024-02-04T13:22:00;10.40;99.90
8910;DHT22;4490;49.072;8.804;2024-02-04T13:24:26;10.40;99.90
8910;DHT22;4490;49.072;8.804;2024-02-04T13:26:51;10.40;99.90
8910;DHT22;4490;49.072;8.804;2024-02-04T13:29:17;10.40;99.90
8910;DHT22;4490;49.072;8.804;2024-02-04T13:31:43;10.40;99.90
8910;DHT22;4490;49.072;8.804;2024-02-04T13:34:08;10.40;99.90
8910;DHT22;4490;49.072;8.804;2024-02-04T13:36:34;10.40;99.90
8910;DHT22;4490;49.072;8.804;2024-02-04T13:38:59;10.30;99.90
8910;DHT22;4490;49.072;8.804;2024-02-04T13:41:25;10.40;99.90
8910;DHT22;4490;49.072;8.804;2024-02-04T13:43:51;10.40;99.90
8910;DHT22;4490;49.072;8.804;2024-02-04T13:46:17;10.30;99.90
8910;DHT22;4490;49.072;8.804;2024-02-04T13:48:43;10.40;99.90
8910;DHT22;4490;49.072;8.804;2024-02-04T13:51:08;10.30;99.90
8910;DHT22;4490;49.072;8.804;2024-02-04T13:53:34;10.40;99.90
8910;DHT22;4490;49.072;8.804;2024-02-04T13:56:01;10.40;99.90
8910;DHT22;4490;49.072;8.804;2024-02-04T13:58:27;10.40;99.90
8910;DHT22;4490;49.072;8.804;2024-02-04T14:00:52;10.40;99.90
8910;DHT22;4490;49.072;8.804;2024-02-04T14:03:18;10.40;99.90
8910;DHT22;4490;49.072;8.804;2024-02-04T14:05:44;10.40;99.90
8910;DHT22;4490;49.072;8.804;2024-02-04T14:08:10;10.40;99.90
8910;DHT22;4490;49.072;8.804;2024-02-04T14:10:36;10.50;99.90
8910;DHT22;4490;49.072;8.804;2024-02-04T14:13:02;10.40;99.90
8910;DHT22;4490;49.072;8.804;2024-02-04T14:15:28;10.40;99.90
8910;DHT22;4490;49.072;8.804;2024-02-04T14:17:54;10.40;99.90
8910;DHT22;4490;49.072;8.804;2024-02-04T14:20:19;10.40;99.90
8910;DHT22;4490;49.072;8.804;2024-02-04T14:22:45;10.40;99.90
8910;DHT22;4490;49.072;8.804;2024-02-04T14:25:10;10.40;99.90
8910;DHT22;4490;49.072;8.804;2024-02-04T14:27:39;10.30;99.90
8910;DHT22;4490;49.072;8.804;2024-02-04T14:30:05;10.40;99.90
8910;DHT22;4490;49.072;8.804;2024-02-04T14:32:32;10.40;99.90
8910;DHT22;4490;49.072;8.804;2024-02-04T14:34:58;10.40;99.90
8910;DHT22;4490;49.072;8.804;2024-02-04T14:37:23;10.40;99.90
8910;DHT22;4490;49.072;8.804;2024-02-04T14:39:49;10.40;99.90
8910;DHT22;4490;49.072;8.804;2024-02-04T14:42:16;10.30;99.90
8910;DHT22;4490;49.072;8.804;2024-02-04T14:44:41;10.30;99.90
8910;DHT22;4490;49.072;8.804;2024-02-04T14:47:07;10.30;99.90
8910;DHT22;4490;49.072;8.804;2024-02-04T14:49:33;10.30;99.90
8910;DHT22;4490;49.072;8.804;2024-02-04T14:51:59;10.30;99.90
8910;DHT22;4490;49.072;8.804;2024-02-04T14:54:24;10.30;99.90
8910;DHT22;4490;49.072;8.804;2024-02-04T14:56:50;10.30;99.90
8910;DHT22;4490;49.072;8.804;2024-02-04T14:59:16;10.30;99.90
8910;DHT22;4490;49.072;8.804;2024-02-04T15:01:45;10.40;99.90
8910;DHT22;4490;49.072;8.804;2024-02-04T15:04:14;10.40;99.90
8910;DHT22;4490;49.072;8.804;2024-02-04T15:06:41;10.40;99.90
8910;DHT22;4490;49.072;8.804;2024-02-04T15:09:07;10.40;99.90
8910;DHT22;4490;49.072;8.804;2024-02-04T15:11:33;10.40;99.90
8910;DHT22;4490;49.072;8.804;2024-02-04T15:13:59;10.50;99.90
8910;DHT22;4490;49.072;8.804;2024-02-04T15:16:25;10.40;99.90
8910;DHT22;4490;49.072;8.804;2024-02-04T15:18:51;10.40;99.90
8910;DHT22;4490;49.072;8.804;2024-02-04T15:21:17;10.40;99.90
8910;DHT22;4490;49.072;8.804;2024-02-04T15:23:43;10.40;99.90
8910;DHT22;4490;49.072;8.804;2024-02-04T15:26:10;10.50;99.90
8910;DHT22;4490;49.072;8.804;2024-02-04T15:28:38;10.50;99.90
8910;DHT22;4490;49.072;8.804;2024-02-04T15:31:04;10.50;99.90
8910;DHT22;4490;49.072;8.804;2024-02-04T15:33:30;10.50;99.90
8910;DHT22;4490;49.072;8.804;2024-02-04T15:35:56;10.50;99.90
8910;DHT22;4490;49.072;8.804;2024-02-04T15:38:22;10.50;99.90
8910;DHT22;4490;49.072;8.804;2024-02-04T15:40:48;10.50;99.90
8910;DHT22;4490;49.072;8.804;2024-02-04T15:43:14;10.50;99.90
8910;DHT22;4490;49.072;8.804;2024-02-04T15:45:40;10.50;99.90
8910;DHT22;4490;49.072;8.804;2024-02-04T15:48:06;10.50;99.90
8910;DHT22;4490;49.072;8.804;2024-02-04T15:50:34;10.50;99.90
8910;DHT22;4490;49.072;8.804;2024-02-04T15:53:00;10.50;99.90
8910;DHT22;4490;49.072;8.804;2024-02-04T15:55:26;10.40;99.90
8910;DHT22;4490;49.072;8.804;2024-02-04T15:57:52;10.40;99.90
8910;DHT22;4490;49.072;8.804;2024-02-04T16:00:20;10.30;99.90
8910;DHT22;4490;49.072;8.804;2024-02-04T16:02:52;10.40;99.90
8910;DHT22;4490;49.072;8.804;2024-02-04T16:05:19;10.30;99.90
8910;DHT22;4490;49.072;8.804;2024-02-04T16:07:46;10.30;99.90
8910;DHT22;4490;49.072;8.804;2024-02-04T16:10:12;10.30;99.90
8910;DHT22;4490;49.072;8.804;2024-02-04T16:12:50;10.40;99.90
8910;DHT22;4490;49.072;8.804;2024-02-04T16:15:19;10.40;99.90
8910;DHT22;4490;49.072;8.804;2024-02-04T16:17:48;10.30;99.90
8910;DHT22;4490;49.072;8.804;2024-02-04T16:20:14;10.30;99.90
8910;DHT22;4490;49.072;8.804;2024-02-04T16:22:39;10.30;99.90